Time;durP1;ratioP1;P1;durP2;ratioP2;P2;SDS_P1;SDS_P2;PMS_P1;PMS_P2;Temp;Humidity;BMP_temperature;BMP_pressure;BME280_temperature;BME280_humidity;BME280_pressure;Samples;Min_cycle;Max_cycle;Signal;HPM_P1;HPM_P2
2022/11/10 00:01:56;;;;;;;9.13;3.10;;;9.90;99.90;;;;;;5087522;28;20081;-76
2022/11/10 00:04:21;;;;;;;8.13;2.78;;;9.90;99.90;;;;;;5090703;28;20034;-74
2022/11/10 00:06:47;;;;;;;6.32;2.65;;;9.90;99.90;;;;;;5091199;28;20107;-75
2022/11/10 00:09:13;;;;;;;12.10;3.42;;;10.00;99.90;;;;;;5088516;28;20048;-72
2022/11/10 00:11:40;;;;;;;7.55;2.78;;;10.00;99.90;;;;;;5090202;28;20028;-76
2022/11/10 00:16:59;;;;;;;8.30;2.75;;;10.00;99.90;;;;;;5090464;28;20039;-74
2022/11/10 00:19:34;;;;;;;10.15;3.15;;;10.00;99.90;;;;;;5089311;28;20492;-75
2022/11/10 00:22:01;;;;;;;11.15;2.58;;;10.00;99.90;;;;;;5089835;28;20035;-73
2022/11/10 00:24:27;;;;;;;10.80;3.15;;;10.00;99.90;;;;;;5089173;28;20044;-74
2022/11/10 00:26:54;;;;;;;9.60;3.17;;;10.00;99.90;;;;;;5091012;28;20032;-68
2022/11/10 00:29:21;;;;;;;10.98;3.13;;;9.90;99.90;;;;;;5089753;28;20097;-69
2022/11/10 00:31:46;;;;;;;10.73;3.20;;;9.90;99.90;;;;;;5090330;28;20099;-71
2022/11/10 00:34:14;;;;;;;8.32;2.92;;;9.90;99.90;;;;;;5089161;28;20778;-69
2022/11/10 00:36:41;;;;;;;10.23;2.92;;;9.90;99.90;;;;;;5090603;28;20051;-69
2022/11/10 00:39:07;;;;;;;8.45;2.78;;;9.80;99.90;;;;;;5090904;28;20024;-71
2022/11/10 00:41:33;;;;;;;7.80;2.63;;;9.80;99.90;;;;;;5095807;28;20016;-74
2022/11/10 00:43:59;;;;;;;9.07;3.28;;;9.70;99.90;;;;;;5093843;28;20111;-74
2022/11/10 00:46:24;;;;;;;9.48;3.42;;;9.70;99.90;;;;;;5095375;28;20027;-74
2022/11/10 00:48:50;;;;;;;9.27;2.80;;;9.70;99.90;;;;;;5094700;28;20039;-73
2022/11/10 00:51:23;;;;;;;15.60;3.13;;;9.70;99.90;;;;;;5093195;28;20028;-76
2022/11/10 00:53:50;;;;;;;9.90;2.90;;;9.70;99.90;;;;;;5094345;28;20034;-75
2022/11/10 00:56:16;;;;;;;10.43;3.38;;;9.60;99.90;;;;;;5095236;28;20039;-76
2022/11/10 00:58:42;;;;;;;8.13;2.90;;;9.60;99.90;;;;;;5095240;28;20384;-76
2022/11/10 01:01:08;;;;;;;8.52;2.95;;;9.60;99.90;;;;;;5095099;28;20050;-74
2022/11/10 01:03:34;;;;;;;12.88;3.20;;;9.60;99.90;;;;;;5095315;28;20020;-73
2022/11/10 01:06:08;;;;;;;18.60;3.50;;;9.50;99.90;;;;;;5094587;28;20028;-74
2022/11/10 01:08:34;;;;;;;10.70;3.67;;;9.50;99.90;;;;;;5093532;28;20036;-72
2022/11/10 01:11:05;;;;;;;9.77;3.53;;;9.60;99.90;;;;;;5093970;28;20024;-74
2022/11/10 01:13:31;;;;;;;8.98;3.10;;;9.60;99.90;;;;;;5092512;28;20390;-70
2022/11/10 01:16:01;;;;;;;11.65;3.45;;;9.50;99.90;;;;;;5094907;28;20020;-72
2022/11/10 01:18:27;;;;;;;10.68;2.97;;;9.50;99.90;;;;;;5093979;28;20622;-71
2022/11/10 01:20:52;;;;;;;12.88;4.22;;;9.50;99.90;;;;;;5094895;28;20028;-72
2022/11/10 01:23:18;;;;;;;14.77;4.30;;;9.50;99.90;;;;;;5093829;28;20515;-73
2022/11/10 01:25:44;;;;;;;8.45;2.80;;;9.50;99.90;;;;;;5093722;28;20391;-72
2022/11/10 01:28:09;;;;;;;10.10;2.85;;;9.50;99.90;;;;;;5094256;28;20027;-71
2022/11/10 01:30:35;;;;;;;7.43;3.50;;;9.50;99.90;;;;;;5094486;28;20530;-72
2022/11/10 01:33:00;;;;;;;15.95;3.78;;;9.50;99.90;;;;;;5093983;28;20035;-71
2022/11/10 01:35:26;;;;;;;9.20;3.28;;;9.50;99.90;;;;;;5092937;28;20017;-71
2022/11/10 01:37:52;;;;;;;6.22;2.75;;;9.50;99.90;;;;;;5094292;28;20131;-74
2022/11/10 01:40:18;;;;;;;7.05;3.05;;;9.50;99.90;;;;;;5093601;28;20047;-74
2022/11/10 01:42:44;;;;;;;10.05;2.90;;;9.40;99.90;;;;;;5094178;28;20091;-76
2022/11/10 01:45:22;;;;;;;10.30;3.22;;;9.40;99.90;;;;;;5093737;28;20115;-75
2022/11/10 01:47:56;;;;;;;12.55;3.22;;;9.40;99.90;;;;;;5093546;28;20032;-75
2022/11/10 01:50:24;;;;;;;11.75;3.53;;;9.40;99.90;;;;;;5091845;28;20084;-72
2022/11/10 01:52:54;;;;;;;8.90;3.10;;;9.40;99.90;;;;;;5094234;28;20028;-73
2022/11/10 01:55:21;;;;;;;7.90;3.08;;;9.40;99.90;;;;;;5094530;28;20020;-73
2022/11/10 01:57:46;;;;;;;9.05;3.00;;;9.40;99.90;;;;;;5095635;28;20093;-74
2022/11/10 02:00:12;;;;;;;13.85;3.35;;;9.40;99.90;;;;;;5091308;28;20035;-71
2022/11/10 02:02:51;;;;;;;9.50;3.08;;;9.30;99.90;;;;;;5092016;28;20028;-74
2022/11/10 02:05:18;;;;;;;11.10;3.17;;;9.30;99.90;;;;;;5093798;28;20050;-73
2022/11/10 02:07:44;;;;;;;9.70;3.30;;;9.30;99.90;;;;;;5094284;28;20375;-75
2022/11/10 02:10:14;;;;;;;6.32;2.85;;;9.30;99.90;;;;;;5094379;28;20027;-76
2022/11/10 02:12:40;;;;;;;12.43;3.92;;;9.30;99.90;;;;;;5094967;28;20063;-75
2022/11/10 02:15:09;;;;;;;12.00;3.55;;;9.30;99.90;;;;;;5093975;28;20051;-75
2022/11/10 02:17:35;;;;;;;11.45;2.88;;;9.30;99.90;;;;;;5093101;28;20028;-75
2022/11/10 02:20:04;;;;;;;12.68;3.15;;;9.20;99.90;;;;;;5093518;28;20024;-75
2022/11/10 02:22:31;;;;;;;13.40;3.78;;;9.20;99.90;;;;;;5093958;28;20032;-75
2022/11/10 02:24:57;;;;;;;8.65;3.20;;;9.30;99.90;;;;;;5094732;28;20780;-76
2022/11/10 02:27:22;;;;;;;14.02;3.90;;;9.30;99.90;;;;;;5093572;28;20040;-75
2022/11/10 02:29:48;;;;;;;8.98;3.45;;;9.30;99.90;;;;;;5092698;28;20028;-73
2022/11/10 02:32:14;;;;;;;12.80;3.83;;;9.30;99.90;;;;;;5092853;28;20036;-75
2022/11/10 02:34:40;;;;;;;11.40;4.18;;;9.40;99.90;;;;;;5094565;28;20016;-75
2022/11/10 02:37:05;;;;;;;10.02;3.78;;;9.40;99.90;;;;;;5092359;28;20464;-73
2022/11/10 02:39:31;;;;;;;11.68;3.78;;;9.50;99.90;;;;;;5093118;28;20013;-75
2022/11/10 02:41:56;;;;;;;11.90;4.32;;;9.50;99.90;;;;;;5093013;28;20020;-76
2022/11/10 02:44:22;;;;;;;10.68;3.70;;;9.60;99.90;;;;;;5091914;28;20043;-74
2022/11/10 02:46:47;;;;;;;10.52;3.55;;;9.60;99.90;;;;;;5093674;28;20471;-73
2022/11/10 02:49:13;;;;;;;13.13;3.58;;;9.60;99.90;;;;;;5095178;28;20693;-71
2022/11/10 02:51:39;;;;;;;12.02;4.00;;;9.60;99.90;;;;;;5094398;28;20441;-71
2022/11/10 02:54:07;;;;;;;13.40;4.40;;;9.60;99.90;;;;;;5093487;28;20020;-71
2022/11/10 02:56:34;;;;;;;14.68;4.00;;;9.60;99.90;;;;;;5093926;28;20058;-74
2022/11/10 02:59:00;;;;;;;13.70;3.25;;;9.60;99.90;;;;;;5093207;28;20024;-74
2022/11/10 03:01:26;;;;;;;13.13;3.63;;;9.60;99.90;;;;;;5091879;28;20472;-73
2022/11/10 03:03:51;;;;;;;13.98;4.72;;;9.60;99.90;;;;;;5093310;28;20020;-72
2022/11/10 03:06:17;;;;;;;11.68;3.80;;;9.50;99.90;;;;;;5093275;28;20028;-72
2022/11/10 03:08:43;;;;;;;10.65;3.80;;;9.50;99.90;;;;;;5093733;28;20036;-74
2022/11/10 03:11:08;;;;;;;9.90;4.13;;;9.50;99.90;;;;;;5092804;28;20025;-74
2022/11/10 03:13:34;;;;;;;13.13;4.32;;;9.50;99.90;;;;;;5093625;28;20024;-73
2022/11/10 03:15:59;;;;;;;9.02;3.63;;;9.50;99.90;;;;;;5092413;28;20032;-74
2022/11/10 03:18:25;;;;;;;10.35;4.65;;;9.50;99.90;;;;;;5091508;28;20051;-74
2022/11/10 03:20:50;;;;;;;14.30;4.50;;;9.50;99.90;;;;;;5093565;28;20032;-74
2022/11/10 03:23:17;;;;;;;16.60;5.10;;;9.50;99.90;;;;;;5092706;28;20437;-74
2022/11/10 03:25:43;;;;;;;12.30;4.88;;;9.50;99.90;;;;;;5091561;28;20039;-74
2022/11/10 03:28:10;;;;;;;11.40;4.78;;;9.50;99.90;;;;;;5092950;28;20043;-75
2022/11/10 03:30:36;;;;;;;13.57;4.75;;;9.50;99.90;;;;;;5093553;28;20475;-74
2022/11/10 03:33:02;;;;;;;14.35;4.25;;;9.40;99.90;;;;;;5091378;28;20024;-74
2022/11/10 03:35:27;;;;;;;15.95;3.70;;;9.40;99.90;;;;;;5092890;28;20392;-74
2022/11/10 03:37:53;;;;;;;14.00;4.57;;;9.40;99.90;;;;;;5093248;28;20030;-75
2022/11/10 03:40:19;;;;;;;11.20;5.07;;;9.40;99.90;;;;;;5092316;28;20024;-74
2022/11/10 03:42:45;;;;;;;11.80;4.10;;;9.40;99.90;;;;;;5093098;28;20024;-75
2022/11/10 03:45:12;;;;;;;13.93;4.18;;;9.40;99.90;;;;;;5092708;28;20020;-75
2022/11/10 03:47:38;;;;;;;12.07;4.03;;;9.30;99.90;;;;;;5092503;28;20047;-73
2022/11/10 03:50:05;;;;;;;11.63;3.83;;;9.40;99.90;;;;;;5092663;28;20051;-72
2022/11/10 03:52:30;;;;;;;12.32;3.53;;;9.40;99.90;;;;;;5093054;28;20024;-75
2022/11/10 03:54:56;;;;;;;8.30;3.00;;;9.40;99.90;;;;;;5092398;28;20752;-74
2022/11/10 03:57:21;;;;;;;10.68;3.45;;;9.30;99.90;;;;;;5092403;28;20063;-73
2022/11/10 03:59:47;;;;;;;10.73;3.85;;;9.30;99.90;;;;;;5092630;28;20046;-73
2022/11/10 04:02:12;;;;;;;12.77;3.50;;;9.30;99.90;;;;;;5091607;28;20050;-74
2022/11/10 04:10:07;;;;;;;9.40;3.47;;;9.30;99.90;;;;;;5092403;28;20434;-75
2022/11/10 04:20:46;;;;;;;10.73;4.20;;;9.30;99.90;;;;;;5093081;28;20042;-75
2022/11/10 04:23:27;;;;;;;11.07;3.45;;;9.20;99.90;;;;;;5090053;28;20126;-74
2022/11/10 04:28:38;;;;;;;14.63;3.65;;;9.20;99.90;;;;;;5091829;28;20063;-74
2022/11/10 04:31:03;;;;;;;13.75;3.80;;;9.20;99.90;;;;;;5092356;28;20020;-71
2022/11/10 04:33:29;;;;;;;12.77;3.67;;;9.10;99.90;;;;;;5090811;28;20174;-74
2022/11/10 04:35:54;;;;;;;9.18;3.47;;;9.20;99.90;;;;;;5091592;28;20032;-74
2022/11/10 04:38:20;;;;;;;9.68;3.47;;;9.20;99.90;;;;;;5090612;28;20032;-74
2022/11/10 04:40:45;;;;;;;9.20;2.95;;;9.30;99.90;;;;;;5095368;28;20012;-74
2022/11/10 04:43:11;;;;;;;8.57;2.95;;;9.30;99.90;;;;;;5095588;28;20060;-73
2022/11/10 04:45:36;;;;;;;17.58;3.92;;;9.30;99.90;;;;;;5091039;28;20365;-73
2022/11/10 04:48:02;;;;;;;6.68;2.70;;;9.40;99.90;;;;;;5090646;28;20046;-72
2022/11/10 04:50:28;;;;;;;10.45;3.05;;;9.40;99.90;;;;;;5090187;28;20020;-74
2022/11/10 04:52:53;;;;;;;15.25;3.72;;;9.40;99.90;;;;;;5090878;28;20077;-70
2022/11/10 04:55:19;;;;;;;12.65;3.83;;;9.50;99.90;;;;;;5089181;28;20480;-70
2022/11/10 04:57:44;;;;;;;12.98;3.95;;;9.50;99.90;;;;;;5088630;28;20020;-71
2022/11/10 05:00:10;;;;;;;16.52;3.13;;;9.50;99.90;;;;;;5089315;28;20012;-74
2022/11/10 05:02:36;;;;;;;7.70;3.13;;;9.50;99.90;;;;;;5089835;28;20124;-73
2022/11/10 05:05:02;;;;;;;11.02;3.45;;;9.60;99.90;;;;;;5091006;28;20091;-72
2022/11/10 05:07:28;;;;;;;8.40;3.53;;;9.60;99.90;;;;;;5089189;28;20063;-74
2022/11/10 05:09:53;;;;;;;12.50;3.50;;;9.60;99.90;;;;;;5089970;28;20390;-74
2022/11/10 05:12:19;;;;;;;7.78;2.83;;;9.60;99.90;;;;;;5090454;28;20031;-74
2022/11/10 05:14:45;;;;;;;13.07;3.38;;;9.60;99.90;;;;;;5090822;28;20073;-73
2022/11/10 05:17:10;;;;;;;14.15;3.75;;;9.50;99.90;;;;;;5090690;28;20085;-73
2022/11/10 05:19:36;;;;;;;11.18;3.15;;;9.50;99.90;;;;;;5090548;28;20080;-73
2022/11/10 05:22:02;;;;;;;14.02;3.35;;;9.50;99.90;;;;;;5091117;28;20432;-74
2022/11/10 05:24:27;;;;;;;10.35;3.45;;;9.40;99.90;;;;;;5089695;28;20044;-75
2022/11/10 05:26:53;;;;;;;14.63;3.78;;;9.40;99.90;;;;;;5093278;28;20044;-73
2022/11/10 05:29:18;;;;;;;9.40;2.70;;;9.40;99.90;;;;;;5094290;28;20476;-74
2022/11/10 05:31:44;;;;;;;16.77;3.72;;;9.40;99.90;;;;;;5092537;28;20027;-73
2022/11/10 05:34:10;;;;;;;14.38;3.47;;;9.40;99.90;;;;;;5093847;28;20035;-74
2022/11/10 05:36:35;;;;;;;9.02;3.80;;;9.30;99.90;;;;;;5090900;28;20052;-74
2022/11/10 05:39:01;;;;;;;10.80;3.53;;;9.30;99.90;;;;;;5091953;28;20055;-75
2022/11/10 05:41:26;;;;;;;13.48;3.47;;;9.30;99.90;;;;;;5091605;28;20027;-74
2022/11/10 05:43:52;;;;;;;8.00;2.97;;;9.30;99.90;;;;;;5093687;28;20477;-74
2022/11/10 05:46:17;;;;;;;9.02;3.20;;;9.30;99.90;;;;;;5092699;28;20078;-74
2022/11/10 05:48:43;;;;;;;6.70;3.22;;;9.20;99.90;;;;;;5093103;28;20024;-74
2022/11/10 05:51:08;;;;;;;11.63;3.15;;;9.20;99.90;;;;;;5093809;28;20422;-75
2022/11/10 05:53:34;;;;;;;9.20;2.67;;;9.10;99.90;;;;;;5092759;28;20437;-74
2022/11/10 05:56:00;;;;;;;7.60;2.63;;;9.10;99.90;;;;;;5093986;28;20095;-74
2022/11/10 05:58:25;;;;;;;12.43;3.20;;;9.10;99.90;;;;;;5093975;28;20024;-74
2022/11/10 06:00:51;;;;;;;11.15;3.35;;;9.10;99.90;;;;;;5095083;28;20020;-75
2022/11/10 06:03:18;;;;;;;8.23;3.47;;;9.00;99.90;;;;;;5092447;28;20380;-75
2022/11/10 06:05:44;;;;;;;16.15;3.22;;;9.00;99.90;;;;;;5092716;28;20056;-75
2022/11/10 06:08:10;;;;;;;10.40;2.70;;;9.00;99.90;;;;;;5091827;28;20055;-74
2022/11/10 06:10:37;;;;;;;8.90;2.90;;;9.00;99.90;;;;;;5094111;28;20100;-75
2022/11/10 06:13:03;;;;;;;10.32;2.72;;;9.00;99.90;;;;;;5093627;28;20033;-74
2022/11/10 06:15:29;;;;;;;7.07;3.50;;;9.00;99.90;;;;;;5093082;28;20099;-74
2022/11/10 06:17:55;;;;;;;8.85;2.63;;;9.00;99.90;;;;;;5092263;28;20119;-74
2022/11/10 06:20:22;;;;;;;7.80;2.92;;;8.90;99.90;;;;;;5091998;28;20052;-74
2022/11/10 06:23:05;;;;;;;8.55;3.15;;;9.00;99.90;;;;;;5092732;28;20412;-74
2022/11/10 06:25:33;;;;;;;9.23;3.63;;;8.90;99.90;;;;;;5093760;28;20039;-75
2022/11/10 06:27:59;;;;;;;8.73;2.45;;;8.90;99.90;;;;;;5091578;28;20035;-75
2022/11/10 06:30:26;;;;;;;8.00;2.75;;;8.90;99.90;;;;;;5093306;28;20032;-74
2022/11/10 06:32:52;;;;;;;4.35;2.22;;;8.90;99.90;;;;;;5092078;28;20016;-74
2022/11/10 06:35:19;;;;;;;15.18;3.38;;;8.90;99.90;;;;;;5087461;28;20024;-71
2022/11/10 06:37:45;;;;;;;7.47;2.70;;;8.80;99.90;;;;;;5082065;28;20029;-74
2022/11/10 06:40:12;;;;;;;9.63;2.60;;;8.80;99.90;;;;;;5090265;28;20088;-72
2022/11/10 06:42:38;;;;;;;7.25;2.30;;;8.90;99.90;;;;;;5091366;28;20020;-75
2022/11/10 06:45:04;;;;;;;9.38;2.65;;;8.80;99.90;;;;;;5091842;28;20016;-73
2022/11/10 06:47:30;;;;;;;6.72;2.65;;;8.80;99.90;;;;;;5089259;28;20040;-74
2022/11/10 06:49:56;;;;;;;10.80;2.63;;;8.80;99.90;;;;;;5089572;28;20023;-75
2022/11/10 06:52:22;;;;;;;14.35;3.25;;;8.90;99.90;;;;;;5091655;28;20020;-74
2022/11/10 06:54:47;;;;;;;12.05;4.28;;;8.80;99.90;;;;;;5092965;28;20357;-76
2022/11/10 06:57:13;;;;;;;8.85;3.05;;;8.80;99.90;;;;;;5092387;28;20479;-75
2022/11/10 06:59:38;;;;;;;10.32;2.55;;;8.80;99.90;;;;;;5092065;28;20382;-75
2022/11/10 07:02:04;;;;;;;12.52;3.20;;;8.80;99.90;;;;;;5091694;28;20035;-74
2022/11/10 07:04:29;;;;;;;13.15;3.38;;;8.80;99.90;;;;;;5090507;28;20066;-75
2022/11/10 07:06:55;;;;;;;14.23;3.88;;;8.80;99.90;;;;;;5090063;28;20028;-75
2022/11/10 07:09:20;;;;;;;10.77;3.28;;;8.70;99.90;;;;;;5091241;28;20462;-76
2022/11/10 07:11:46;;;;;;;10.88;3.35;;;8.70;99.90;;;;;;5090918;28;20025;-73
2022/11/10 07:14:12;;;;;;;10.80;5.00;;;8.70;99.90;;;;;;5091423;28;20020;-74
2022/11/10 07:16:37;;;;;;;12.55;3.70;;;8.70;99.90;;;;;;5090222;28;20349;-74
2022/11/10 07:19:03;;;;;;;6.38;2.05;;;8.80;99.90;;;;;;5090542;28;20028;-72
2022/11/10 07:21:29;;;;;;;11.32;3.17;;;8.70;99.90;;;;;;5091690;28;20016;-75
2022/11/10 07:23:54;;;;;;;10.65;2.90;;;8.80;99.90;;;;;;5092562;28;20047;-73
2022/11/10 07:26:20;;;;;;;13.57;3.38;;;8.80;99.90;;;;;;5092202;28;20035;-74
2022/11/10 07:28:45;;;;;;;9.10;3.10;;;8.90;99.90;;;;;;5091002;28;20036;-73
2022/11/10 07:31:11;;;;;;;6.82;2.97;;;8.80;99.90;;;;;;5092155;28;20012;-75
2022/11/10 07:33:36;;;;;;;9.30;3.03;;;8.80;99.90;;;;;;5091094;28;20376;-74
2022/11/10 07:36:03;;;;;;;14.68;3.30;;;8.90;99.90;;;;;;5091480;28;20099;-73
2022/11/10 07:38:29;;;;;;;10.55;3.55;;;8.90;99.90;;;;;;5091414;28;20084;-73
2022/11/10 07:40:55;;;;;;;12.57;3.50;;;8.90;99.90;;;;;;5092397;28;20139;-73
2022/11/10 07:43:22;;;;;;;10.75;3.00;;;8.90;99.90;;;;;;5091909;28;20030;-74
2022/11/10 07:45:52;;;;;;;7.95;3.22;;;9.00;99.90;;;;;;5092670;28;20109;-74
2022/11/10 07:48:18;;;;;;;12.52;3.55;;;9.00;99.90;;;;;;5089781;28;20476;-74
2022/11/10 07:50:45;;;;;;;10.00;3.33;;;9.00;99.90;;;;;;5090028;28;20027;-76
2022/11/10 07:53:13;;;;;;;9.07;2.75;;;9.00;99.90;;;;;;5090485;28;20103;-75
2022/11/10 07:55:40;;;;;;;11.57;3.47;;;9.10;99.90;;;;;;5090878;28;20032;-76
2022/11/10 07:58:06;;;;;;;9.60;3.30;;;9.20;99.90;;;;;;5089985;28;20016;-73
2022/11/10 08:00:32;;;;;;;11.77;3.85;;;9.20;99.90;;;;;;5091811;28;20016;-75
2022/11/10 08:03:06;;;;;;;8.88;3.10;;;9.30;99.90;;;;;;5090457;28;20047;-77
2022/11/10 08:05:33;;;;;;;6.53;2.90;;;9.30;99.90;;;;;;5090740;28;20092;-76
2022/11/10 08:07:59;;;;;;;10.10;3.65;;;9.40;99.90;;;;;;5091186;28;20035;-75
2022/11/10 08:10:25;;;;;;;9.77;3.25;;;9.40;99.90;;;;;;5090539;28;20503;-74
2022/11/10 08:12:59;;;;;;;13.45;3.22;;;9.50;99.90;;;;;;5091679;28;20111;-75
2022/11/10 08:15:26;;;;;;;10.50;3.17;;;9.50;99.90;;;;;;5091537;28;20028;-75
2022/11/10 08:18:25;;;;;;;15.15;3.67;;;9.60;99.90;;;;;;5090087;28;20016;-73
2022/11/10 08:20:51;;;;;;;10.10;3.50;;;9.60;99.90;;;;;;5087387;28;20116;-74
2022/11/10 08:23:17;;;;;;;10.02;3.25;;;9.70;99.90;;;;;;5090234;28;20116;-76
2022/11/10 08:25:43;;;;;;;10.35;3.40;;;9.70;99.90;;;;;;5090421;28;20114;-75
2022/11/10 08:28:14;;;;;;;13.40;3.78;;;9.80;99.90;;;;;;5088031;28;20086;-77
2022/11/10 08:30:42;;;;;;;9.07;2.80;;;9.80;99.90;;;;;;5089806;28;20111;-76
2022/11/10 08:33:09;;;;;;;12.23;3.17;;;9.90;99.90;;;;;;5090204;28;20024;-76
2022/11/10 08:35:44;;;;;;;12.35;3.95;;;9.90;99.90;;;;;;5088485;28;20460;-74
2022/11/10 08:38:21;;;;;;;13.43;3.67;;;10.00;99.90;;;;;;5089864;28;20051;-76
2022/11/10 08:40:48;;;;;;;13.65;3.13;;;10.10;99.90;;;;;;5090883;28;20035;-75
2022/11/10 08:43:14;;;;;;;14.65;3.92;;;10.10;99.90;;;;;;5089293;28;20027;-76
2022/11/10 08:45:42;;;;;;;11.93;3.47;;;10.20;99.90;;;;;;5090419;28;20054;-75
2022/11/10 08:48:13;;;;;;;11.27;3.33;;;10.30;99.90;;;;;;5087877;28;20492;-75
2022/11/10 08:50:39;;;;;;;;;;;10.40;99.90;;;;;;5089166;28;20099;-75
2022/11/10 08:53:09;;;;;;;11.65;3.38;;;10.50;99.90;;;;;;5089765;28;19935;-73
2022/11/10 08:55:34;;;;;;;16.23;3.42;;;10.60;99.90;;;;;;5089721;28;20023;-74
2022/11/10 08:58:01;;;;;;;14.98;4.03;;;10.60;99.90;;;;;;5091292;28;20024;-73
2022/11/10 09:00:28;;;;;;;16.83;3.20;;;10.70;99.90;;;;;;5092852;28;20030;-73
2022/11/10 09:03:18;;;;;;;15.30;4.03;;;10.70;99.90;;;;;;5095043;28;20068;-72
2022/11/10 09:05:44;;;;;;;12.38;3.55;;;10.80;99.90;;;;;;5094687;28;20437;-73
2022/11/10 09:08:11;;;;;;;9.82;3.55;;;10.80;99.90;;;;;;5094178;28;20036;-73
2022/11/10 09:10:40;;;;;;;7.88;3.17;;;10.90;99.90;;;;;;5094874;28;20468;-71
2022/11/10 09:13:06;;;;;;;14.75;4.57;;;10.90;99.90;;;;;;5094851;28;20016;-73
2022/11/10 09:15:33;;;;;;;18.05;4.10;;;10.90;99.90;;;;;;5093449;28;20016;-74
2022/11/10 09:18:03;;;;;;;8.85;3.38;;;10.90;99.90;;;;;;5094246;28;20035;-74
2022/11/10 09:20:30;;;;;;;15.80;4.33;;;10.90;99.90;;;;;;5094957;28;20016;-73
2022/11/10 09:23:02;;;;;;;10.48;3.75;;;10.90;99.90;;;;;;5092533;28;20020;-72
2022/11/10 09:25:27;;;;;;;11.50;3.35;;;10.90;99.90;;;;;;5091289;28;20589;-73
2022/11/10 09:27:53;;;;;;;11.93;4.03;;;10.90;99.90;;;;;;5093251;28;20108;-74
2022/11/10 09:30:19;;;;;;;13.25;3.40;;;10.90;99.90;;;;;;5093500;28;20020;-76
2022/11/10 09:32:45;;;;;;;11.75;4.05;;;11.00;99.90;;;;;;5093162;28;20024;-73
2022/11/10 09:35:12;;;;;;;14.77;3.72;;;11.00;99.90;;;;;;5092670;28;20481;-75
2022/11/10 09:37:38;;;;;;;10.50;4.25;;;11.00;99.90;;;;;;5092223;28;20031;-72
2022/11/10 09:40:04;;;;;;;15.88;4.15;;;11.10;99.90;;;;;;5093388;28;20024;-72
2022/11/10 09:42:37;;;;;;;13.45;4.05;;;11.20;99.90;;;;;;5093560;28;20376;-72
2022/11/10 09:45:28;;;;;;;12.65;3.88;;;11.30;99.90;;;;;;5091707;28;20032;-73
2022/11/10 09:48:05;;;;;;;14.43;4.25;;;11.30;99.90;;;;;;5092379;28;20043;-73
2022/11/10 09:50:43;;;;;;;10.90;3.35;;;11.40;99.90;;;;;;5093415;28;20028;-72
2022/11/10 09:53:22;;;;;;;15.65;3.17;;;11.50;99.90;;;;;;5093801;28;20104;-76
2022/11/10 09:56:21;;;;;;;15.10;3.25;;;11.50;99.90;;;;;;5093643;28;20020;-73
2022/11/10 09:58:47;;;;;;;10.55;3.03;;;11.60;99.90;;;;;;5081992;28;20062;-72
2022/11/10 10:01:25;;;;;;;13.35;2.63;;;11.60;99.90;;;;;;5092944;28;20460;-72
2022/11/10 10:04:20;;;;;;;10.60;2.85;;;11.70;99.90;;;;;;5094610;28;20103;-74
2022/11/10 10:07:10;;;;;;;9.75;2.53;;;11.70;99.90;;;;;;5092110;28;20073;-74
2022/11/10 10:10:00;;;;;;;12.00;2.95;;;11.80;99.90;;;;;;5091141;28;20460;-73
2022/11/10 10:12:53;;;;;;;11.32;3.10;;;11.80;99.90;;;;;;5092013;28;20158;-73
2022/11/10 10:16:01;;;;;;;9.55;2.72;;;11.90;99.90;;;;;;5092986;28;20058;-74
2022/11/10 10:18:53;;;;;;;6.57;2.78;;;12.00;99.90;;;;;;5090457;28;20059;-75
2022/11/10 10:21:34;;;;;;;10.88;3.17;;;12.10;99.90;;;;;;5079691;28;20362;-75
2022/11/10 10:24:01;;;;;;;10.70;3.10;;;12.20;99.90;;;;;;5093593;28;20123;-76
2022/11/10 10:26:29;;;;;;;7.13;2.60;;;12.20;99.90;;;;;;5092682;28;20034;-76
2022/11/10 10:28:59;;;;;;;10.15;2.30;;;12.30;99.90;;;;;;5089811;28;20481;-76
2022/11/10 10:31:39;;;;;;;8.50;2.40;;;12.30;99.90;;;;;;5092265;28;20016;-76
2022/11/10 10:34:13;;;;;;;11.60;3.35;;;12.40;99.90;;;;;;5091425;28;20020;-72
2022/11/10 10:36:39;;;;;;;11.73;2.83;;;12.50;99.90;;;;;;5091773;28;20094;-74
2022/11/10 10:39:29;;;;;;;9.52;2.90;;;12.50;99.90;;;;;;5090252;28;20027;-75
2022/11/10 10:41:55;;;;;;;10.45;2.63;;;12.60;99.90;;;;;;5092304;28;20086;-75
2022/11/10 10:44:21;;;;;;;11.45;3.30;;;12.60;99.90;;;;;;5092934;28;20490;-72
2022/11/10 10:46:58;;;;;;;10.10;2.53;;;12.70;99.90;;;;;;5093044;28;20048;-77
2022/11/10 10:49:26;;;;;;;11.30;2.20;;;12.70;99.90;;;;;;5091547;28;20036;-77
2022/11/10 10:52:13;;;;;;;8.95;2.65;;;12.80;99.90;;;;;;5093386;28;20020;-77
2022/11/10 10:54:39;;;;;;;12.82;2.40;;;12.80;99.90;;;;;;5093455;28;20028;-75
2022/11/10 10:57:30;;;;;;;12.35;1.80;;;12.90;99.90;;;;;;5091359;28;20348;-72
2022/11/10 11:00:21;;;;;;;10.27;3.00;;;12.90;99.90;;;;;;5091665;28;20021;-76
2022/11/10 11:03:11;;;;;;;12.15;2.65;;;13.00;99.90;;;;;;5091315;28;20043;-75
2022/11/10 11:05:37;;;;;;;17.00;2.97;;;13.00;99.90;;;;;;5090298;28;20024;-75
2022/11/10 11:08:03;;;;;;;10.50;2.55;;;13.10;99.90;;;;;;5089893;28;20504;-76
2022/11/10 11:10:32;;;;;;;12.40;2.50;;;13.10;99.90;;;;;;5091491;28;20504;-77
2022/11/10 11:13:20;;;;;;;12.82;2.72;;;13.20;99.90;;;;;;5092378;28;20027;-76
2022/11/10 11:16:00;;;;;;;12.85;1.92;;;13.30;99.90;;;;;;5091764;28;20118;-77
2022/11/10 11:18:27;;;;;;;10.32;2.45;;;13.40;99.90;;;;;;5090153;28;20069;-75
2022/11/10 11:21:01;;;;;;;12.85;3.17;;;13.50;99.90;;;;;;5090097;28;20374;-75
2022/11/10 11:23:38;;;;;;;9.10;2.97;;;13.50;99.90;;;;;;5089880;28;20032;-76
2022/11/10 11:26:27;;;;;;;12.15;2.38;;;13.50;99.90;;;;;;5091945;28;20519;-75
2022/11/10 11:29:09;;;;;;;14.07;2.50;;;13.50;99.90;;;;;;5091320;28;20399;-76
2022/11/10 11:32:00;;;;;;;7.55;2.08;;;13.60;99.90;;;;;;5091201;28;20012;-77
2022/11/10 11:34:56;;;;;;;9.88;2.65;;;13.70;99.90;;;;;;5091621;28;20098;-77
2022/11/10 11:37:42;;;;;;;20.67;3.05;;;13.80;99.90;;;;;;5066298;28;20035;-76
2022/11/10 11:40:40;;;;;;;10.20;2.00;;;14.10;99.90;;;;;;5090576;28;20024;-76
2022/11/10 11:43:21;;;;;;;7.32;2.50;;;14.20;99.90;;;;;;5089896;28;20050;-76
2022/11/10 11:46:15;;;;;;;9.00;2.47;;;14.30;99.90;;;;;;5091454;28;20028;-75
2022/11/10 11:48:49;;;;;;;6.00;2.33;;;14.30;99.90;;;;;;5092407;28;20028;-76
2022/11/10 11:51:38;;;;;;;9.13;2.45;;;14.30;99.90;;;;;;5092039;28;20016;-76
2022/11/10 11:54:38;;;;;;;6.80;2.83;;;14.30;99.90;;;;;;5062569;28;20055;-70
2022/11/10 11:57:21;;;;;;;14.20;2.33;;;14.40;99.80;;;;;;5092279;28;20027;-69
2022/11/10 12:00:02;;;;;;;6.97;2.22;;;14.40;99.50;;;;;;5092078;28;20069;-75
2022/11/10 12:02:59;;;;;;;11.23;2.17;;;14.50;99.60;;;;;;5090338;28;20051;-76
2022/11/10 12:05:42;;;;;;;9.40;2.53;;;14.60;99.60;;;;;;5091936;28;20024;-74
2022/11/10 12:08:11;;;;;;;10.73;1.90;;;14.70;99.00;;;;;;5090078;28;20040;-76
2022/11/10 12:10:44;;;;;;;8.63;2.00;;;14.80;98.50;;;;;;5091975;28;20019;-72
2022/11/10 12:13:29;;;;;;;8.27;2.17;;;14.90;98.40;;;;;;5091395;28;20487;-75
2022/11/10 12:16:14;;;;;;;12.25;2.25;;;14.90;97.90;;;;;;5090938;28;20426;-75
2022/11/10 12:18:50;;;;;;;4.82;1.85;;;14.90;97.80;;;;;;5090175;28;20404;-76
2022/11/10 12:21:43;;;;;;;7.38;1.88;;;14.90;97.90;;;;;;5090482;28;20024;-77
2022/11/10 12:24:26;;;;;;;9.02;2.60;;;14.90;97.40;;;;;;5089952;28;20051;-75
2022/11/10 12:27:01;;;;;;;8.70;2.00;;;14.90;96.90;;;;;;5090966;28;20099;-74
2022/11/10 12:29:46;;;;;;;8.32;1.67;;;14.80;97.10;;;;;;5090057;28;20028;-75
2022/11/10 12:32:22;;;;;;;8.55;2.42;;;14.80;97.20;;;;;;5088278;28;20103;-77
2022/11/10 12:35:20;;;;;;;10.48;2.38;;;14.90;97.20;;;;;;5091166;28;20020;-74
2022/11/10 12:37:59;;;;;;;6.25;1.88;;;14.90;96.90;;;;;;5089719;28;20063;-78
2022/11/10 12:40:40;;;;;;;7.20;2.20;;;15.00;96.90;;;;;;5093864;28;20012;-74
2022/11/10 12:43:19;;;;;;;7.30;2.15;;;15.00;96.60;;;;;;5095478;28;20024;-77
2022/11/10 12:45:50;;;;;;;8.48;1.73;;;15.00;96.50;;;;;;5094165;28;20016;-75
2022/11/10 12:48:17;;;;;;;6.30;1.95;;;15.00;96.20;;;;;;5094673;28;20074;-77
2022/11/10 12:50:54;;;;;;;6.28;2.28;;;15.00;96.30;;;;;;5096283;28;20016;-75
2022/11/10 12:53:25;;;;;;;11.73;2.60;;;15.10;96.30;;;;;;5094292;28;20024;-76
2022/11/10 12:56:02;;;;;;;11.73;2.42;;;15.10;96.20;;;;;;5095603;28;20032;-69
2022/11/10 12:58:29;;;;;;;8.57;2.17;;;15.10;96.20;;;;;;5094989;28;20032;-80
2022/11/10 13:01:02;;;;;;;7.57;2.00;;;15.10;95.80;;;;;;5093636;28;20024;-79
2022/11/10 13:03:32;;;;;;;10.95;1.92;;;15.10;95.80;;;;;;5094943;28;20039;-79
2022/11/10 13:06:01;;;;;;;6.85;1.65;;;15.20;95.50;;;;;;5095585;28;20020;-79
2022/11/10 13:08:41;;;;;;;8.18;2.10;;;15.20;95.40;;;;;;5092593;28;20075;-80
2022/11/10 13:11:10;;;;;;;6.65;1.23;;;15.30;95.30;;;;;;5092831;28;20482;-79
2022/11/10 13:13:58;;;;;;;9.25;1.65;;;15.40;95.30;;;;;;5093555;28;20027;-74
2022/11/10 13:16:46;;;;;;;6.82;1.70;;;15.50;94.80;;;;;;5093451;28;20031;-78
2022/11/10 13:19:32;;;;;;;8.70;2.08;;;15.50;94.50;;;;;;5093069;28;20024;-76
2022/11/10 13:22:04;;;;;;;7.10;1.60;;;15.50;94.30;;;;;;5092764;28;20039;-80
2022/11/10 13:24:38;;;;;;;6.38;2.15;;;15.40;94.30;;;;;;5092866;28;20496;-75